Airport View

Enter AWOS ICAO identifier for current METAR.

ex. KFNL

KRUT 031617Z AUTO 34004KT 10SM FEW019 SCT030 OVC045 24/22 A2989 RMK AO2 $

3 Jul 2020 16:48

Frequency: 118.375

Phone: 802-747-3044

Other Area AWOS: KVSF - K6B0 - KLEB - KGFL

TAF KRUT 031133Z 0312/0412 00000KT P6SM BKN018 BKN060 FM031330 VRB02KT P6SM BKN025 BKN060 FM031500 03005KT P6SM SCT035 BKN060 TEMPO 0315/0319 5SM -SHRA BR BKN035 FM040000 13005KT P6SM BKN070 FM040700 14006KT P6SM SCT015 BKN025